NCAR-RAP Real-Time Weather Data

Output produced by METARs form (23 February 2020  01:58 UTC)
found at http://weather.rap.ucar.edu/surface/
 
KCNK 230055Z AUTO 18008KT 10SM CLR 09/01 A2998 RMK AO2 SLP158 T00940011